Time;durP1;ratioP1;P1;durP2;ratioP2;P2;SDS_P1;SDS_P2;PMS_P1;PMS_P2;Temp;Humidity;BMP_temperature;BMP_pressure;BME280_temperature;BME280_humidity;BME280_pressure;Samples;Min_cycle;Max_cycle;Signal;HPM_P1;HPM_P2
2021/11/13 00:00:26;;;;;;;33.67;24.08;;;8.60;99.90;;;;;;5111945;28;20022;-89
2021/11/13 00:02:52;;;;;;;41.58;28.90;;;8.60;99.90;;;;;;5111066;28;20092;-89
2021/11/13 00:05:20;;;;;;;36.42;26.55;;;8.60;99.90;;;;;;5112478;28;20467;-88
2021/11/13 00:07:46;;;;;;;44.33;29.77;;;8.70;99.90;;;;;;5110879;28;20518;-90
2021/11/13 00:10:15;;;;;;;42.28;29.17;;;8.70;99.90;;;;;;5110836;28;20063;-89
2021/11/13 00:12:42;;;;;;;41.17;29.52;;;8.60;99.90;;;;;;5110720;28;20027;-89
2021/11/13 00:15:09;;;;;;;39.72;28.33;;;8.70;99.90;;;;;;5110775;28;20474;-89
2021/11/13 00:17:39;;;;;;;42.70;29.58;;;8.70;99.90;;;;;;5110527;28;20474;-89
2021/11/13 00:20:07;;;;;;;37.42;27.40;;;8.70;99.90;;;;;;5110661;28;20077;-90
2021/11/13 00:22:33;;;;;;;36.33;25.60;;;8.70;99.90;;;;;;5111622;28;20545;-89
2021/11/13 00:24:59;;;;;;;41.20;27.40;;;8.70;99.90;;;;;;5110398;28;20490;-90
2021/11/13 00:27:25;;;;;;;42.33;29.88;;;8.80;99.90;;;;;;5110852;28;20042;-91
2021/11/13 00:29:51;;;;;;;40.28;29.83;;;8.70;99.90;;;;;;5111065;28;20111;-91
2021/11/13 00:32:17;;;;;;;47.00;31.77;;;8.70;99.90;;;;;;5112515;28;20467;-91
2021/11/13 00:34:43;;;;;;;46.88;32.00;;;8.80;99.90;;;;;;5111499;28;20030;-91
2021/11/13 00:37:09;;;;;;;42.83;28.85;;;8.80;99.90;;;;;;5111886;28;20114;-90
2021/11/13 00:39:36;;;;;;;51.75;34.35;;;8.80;99.90;;;;;;5113648;28;20024;-91
2021/11/13 00:42:02;;;;;;;50.67;33.90;;;8.80;99.90;;;;;;5112359;28;20185;-90
2021/11/13 00:44:28;;;;;;;56.00;34.95;;;8.80;99.90;;;;;;5111928;28;20035;-91
2021/11/13 00:46:54;;;;;;;50.17;32.72;;;8.80;99.90;;;;;;5118354;28;20051;-92
2021/11/13 00:49:20;;;;;;;44.35;31.00;;;8.80;99.90;;;;;;5123912;28;20024;-91
2021/11/13 00:51:45;;;;;;;43.28;29.67;;;8.80;99.90;;;;;;5110735;28;20501;-92
2021/11/13 00:54:13;;;;;;;48.47;32.28;;;8.80;99.90;;;;;;5110917;28;20023;-90
2021/11/13 00:56:39;;;;;;;46.30;31.55;;;8.80;99.90;;;;;;5110239;28;20031;-92
2021/11/13 00:59:05;;;;;;;42.03;28.30;;;8.80;99.90;;;;;;5111301;28;20104;-92
2021/11/13 01:01:32;;;;;;;45.47;29.92;;;8.80;99.90;;;;;;5111906;28;20024;-90
2021/11/13 01:04:02;;;;;;;44.80;29.73;;;8.80;99.90;;;;;;5094686;28;20699;-90
2021/11/13 01:06:30;;;;;;;45.97;31.80;;;8.80;99.90;;;;;;5110635;28;20124;-91
2021/11/13 01:08:56;;;;;;;51.10;32.90;;;8.90;99.90;;;;;;5094363;28;20627;-91
2021/11/13 01:11:22;;;;;;;48.13;32.45;;;8.90;99.90;;;;;;5110512;28;20027;-90
2021/11/13 01:13:47;;;;;;;45.33;30.35;;;8.80;99.90;;;;;;5110500;28;20035;-91
2021/11/13 01:16:15;;;;;;;44.08;30.27;;;8.80;99.90;;;;;;5113848;28;20016;-91
2021/11/13 01:18:42;;;;;;;48.17;32.28;;;8.90;99.90;;;;;;5114074;28;20031;-90
2021/11/13 01:21:08;;;;;;;43.50;30.52;;;8.90;99.90;;;;;;5097043;28;20039;-90
2021/11/13 01:23:34;;;;;;;49.08;32.10;;;8.90;99.90;;;;;;5112944;28;20494;-89
2021/11/13 01:26:01;;;;;;;46.05;31.13;;;8.90;99.90;;;;;;5114951;28;20039;-90
2021/11/13 01:28:27;;;;;;;46.13;31.35;;;8.90;99.90;;;;;;5114044;28;20024;-91
2021/11/13 01:30:56;;;;;;;49.28;31.38;;;8.80;99.90;;;;;;5115020;28;20027;-91
2021/11/13 01:33:31;;;;;;;42.17;28.90;;;8.80;99.90;;;;;;5113347;28;20032;-91
2021/11/13 01:35:59;;;;;;;44.67;29.98;;;8.90;99.90;;;;;;5113089;28;20032;-91
2021/11/13 01:38:28;;;;;;;52.03;33.55;;;8.90;99.90;;;;;;5114433;28;20036;-90
2021/11/13 01:40:55;;;;;;;46.40;29.95;;;8.90;99.90;;;;;;5096420;28;20803;-90
2021/11/13 01:43:21;;;;;;;51.45;33.85;;;8.90;99.90;;;;;;5112884;28;20127;-90
2021/11/13 01:45:50;;;;;;;41.90;29.52;;;8.90;99.90;;;;;;5114689;28;20032;-91
2021/11/13 01:48:16;;;;;;;44.00;30.13;;;8.90;99.90;;;;;;5114529;28;20035;-91
2021/11/13 01:50:46;;;;;;;42.35;29.50;;;8.90;99.90;;;;;;5112251;28;20062;-91
2021/11/13 01:53:13;;;;;;;47.78;30.63;;;9.00;99.90;;;;;;5112633;28;20036;-91
2021/11/13 01:55:40;;;;;;;39.10;28.98;;;8.90;99.90;;;;;;5096399;28;20019;-91
2021/11/13 01:58:11;;;;;;;41.83;28.85;;;9.00;99.90;;;;;;5113580;28;20016;-92
2021/11/13 02:00:44;;;;;;;42.65;28.00;;;9.00;99.90;;;;;;5097145;28;20031;-92
2021/11/13 02:03:11;;;;;;;39.00;28.37;;;9.00;99.90;;;;;;5112292;28;20533;-91
2021/11/13 02:05:38;;;;;;;43.03;29.52;;;9.00;99.90;;;;;;5112459;28;20028;-92
2021/11/13 02:08:07;;;;;;;47.20;31.45;;;9.00;99.90;;;;;;5112411;28;20039;-92
2021/11/13 02:10:34;;;;;;;40.72;28.35;;;9.00;99.90;;;;;;5113052;28;20028;-91
2021/11/13 02:13:03;;;;;;;37.95;28.25;;;9.00;99.90;;;;;;5113086;28;20084;-92
2021/11/13 02:15:33;;;;;;;40.03;27.92;;;9.10;99.90;;;;;;5114431;28;20111;-91
2021/11/13 02:18:03;;;;;;;39.45;27.77;;;9.10;99.90;;;;;;5112680;28;20107;-92
2021/11/13 02:20:40;;;;;;;39.55;25.58;;;9.10;99.90;;;;;;5112824;28;20413;-92
2021/11/13 02:23:17;;;;;;;35.85;24.30;;;9.10;99.90;;;;;;5112471;28;20034;-90
2021/11/13 02:25:45;;;;;;;33.75;24.40;;;9.10;99.90;;;;;;5112825;28;20031;-90
2021/11/13 02:28:15;;;;;;;43.28;29.80;;;9.10;99.90;;;;;;5114054;28;20042;-90
2021/11/13 02:30:41;;;;;;;35.13;25.42;;;9.10;99.90;;;;;;5114036;28;20382;-91
2021/11/13 02:33:08;;;;;;;36.55;26.63;;;9.10;99.90;;;;;;5097133;28;20097;-91
2021/11/13 02:35:48;;;;;;;33.95;23.92;;;9.10;99.90;;;;;;5114206;28;20020;-92
2021/11/13 02:38:16;;;;;;;34.42;25.63;;;9.10;99.90;;;;;;5096973;28;20032;-92
2021/11/13 02:40:45;;;;;;;36.55;26.38;;;9.20;99.90;;;;;;5113262;28;20020;-91
2021/11/13 02:43:12;;;;;;;38.03;27.42;;;9.10;99.90;;;;;;5113572;28;20066;-90
2021/11/13 02:45:39;;;;;;;38.60;28.20;;;9.20;99.90;;;;;;5114435;28;20028;-90
2021/11/13 02:48:06;;;;;;;36.70;27.20;;;9.20;99.90;;;;;;5114597;28;20051;-91
2021/11/13 02:50:32;;;;;;;34.05;26.20;;;9.20;99.90;;;;;;5115137;28;20034;-90
2021/11/13 02:53:00;;;;;;;35.92;25.40;;;9.20;99.90;;;;;;5117131;28;20034;-91
2021/11/13 02:55:28;;;;;;;36.65;25.88;;;9.20;99.90;;;;;;5117687;28;20024;-90
2021/11/13 02:57:54;;;;;;;35.47;25.13;;;9.20;99.90;;;;;;5121816;28;20026;-90
2021/11/13 03:00:24;;;;;;;37.28;26.67;;;9.20;99.90;;;;;;5121814;28;20319;-91
2021/11/13 03:02:52;;;;;;;41.85;29.10;;;9.30;99.90;;;;;;5114488;28;20032;-92
2021/11/13 03:05:24;;;;;;;39.17;27.77;;;9.30;99.90;;;;;;5112016;28;20115;-91
2021/11/13 03:07:55;;;;;;;41.50;29.13;;;9.30;99.90;;;;;;5113735;28;20043;-90
2021/11/13 03:10:24;;;;;;;41.13;28.67;;;9.30;99.90;;;;;;5114272;28;20023;-93
2021/11/13 03:12:52;;;;;;;38.22;28.13;;;9.30;99.90;;;;;;5113862;28;20027;-91
2021/11/13 03:15:21;;;;;;;36.72;27.70;;;9.30;99.90;;;;;;5114359;28;20032;-92
2021/11/13 03:17:50;;;;;;;39.40;29.58;;;9.40;99.90;;;;;;5114017;28;20023;-90
2021/11/13 03:20:20;;;;;;;35.22;27.73;;;9.40;99.90;;;;;;5114069;28;20211;-91
2021/11/13 03:22:48;;;;;;;41.92;30.55;;;9.40;99.90;;;;;;5114425;28;20020;-91
2021/11/13 03:25:22;;;;;;;36.72;26.95;;;9.40;99.90;;;;;;5114836;28;20028;-92
2021/11/13 03:27:54;;;;;;;43.08;30.52;;;9.40;99.90;;;;;;5098248;28;20176;-90
2021/11/13 03:30:22;;;;;;;43.33;31.73;;;9.40;99.90;;;;;;5115534;27;20035;-91
2021/11/13 03:32:53;;;;;;;38.40;28.13;;;9.40;99.90;;;;;;5096015;28;20082;-91
2021/11/13 03:35:27;;;;;;;36.47;26.90;;;9.40;99.90;;;;;;5086128;28;20069;-91
2021/11/13 03:37:56;;;;;;;35.67;27.08;;;9.40;99.90;;;;;;5106960;28;20038;-91
2021/11/13 03:40:22;;;;;;;40.80;28.27;;;9.50;99.90;;;;;;5134765;28;20024;-92
2021/11/13 03:42:50;;;;;;;36.40;27.00;;;9.50;99.90;;;;;;5118056;28;20043;-91
2021/11/13 03:45:17;;;;;;;35.28;27.35;;;9.50;99.90;;;;;;5118445;28;20020;-91
2021/11/13 03:47:43;;;;;;;45.97;30.98;;;9.50;99.90;;;;;;5117085;28;20036;-91
2021/11/13 03:50:09;;;;;;;37.47;28.63;;;9.50;99.90;;;;;;5097544;28;20127;-91
2021/11/13 03:52:35;;;;;;;37.50;28.45;;;9.50;99.90;;;;;;5096272;28;20054;-91
2021/11/13 03:55:02;;;;;;;40.13;29.48;;;9.50;99.90;;;;;;5095215;28;20093;-90
2021/11/13 03:57:29;;;;;;;37.92;29.02;;;9.50;99.90;;;;;;5095264;28;20028;-91
2021/11/13 03:59:56;;;;;;;42.67;29.50;;;9.50;99.90;;;;;;5097056;28;20054;-91
2021/11/13 04:02:22;;;;;;;39.33;26.92;;;9.50;99.90;;;;;;5094447;28;20547;-90
2021/11/13 04:04:49;;;;;;;36.50;26.77;;;9.60;99.90;;;;;;5095840;28;20035;-91
2021/11/13 04:07:14;;;;;;;37.58;27.52;;;9.60;99.90;;;;;;5077621;28;20029;-92
2021/11/13 04:09:41;;;;;;;37.35;26.60;;;9.60;99.90;;;;;;5095777;28;20066;-92
2021/11/13 04:12:10;;;;;;;37.45;26.52;;;9.60;99.90;;;;;;5095065;28;20156;-93
2021/11/13 04:14:41;;;;;;;49.38;32.08;;;9.60;99.90;;;;;;5095897;28;20031;-92
2021/11/13 04:17:08;;;;;;;39.13;28.30;;;9.60;99.90;;;;;;5094046;28;20024;-92
2021/11/13 04:19:33;;;;;;;44.17;30.90;;;9.60;99.90;;;;;;5094258;28;20119;-92
2021/11/13 04:21:59;;;;;;;36.70;27.25;;;9.60;99.90;;;;;;5094446;28;20047;-92
2021/11/13 04:24:25;;;;;;;38.55;27.55;;;9.60;99.90;;;;;;5094224;28;20028;-93
2021/11/13 04:26:52;;;;;;;45.90;31.45;;;9.60;99.90;;;;;;5095093;28;20034;-93
2021/11/13 04:29:18;;;;;;;36.47;27.55;;;9.70;99.90;;;;;;5094433;28;20031;-92
2021/11/13 04:31:46;;;;;;;36.47;26.55;;;9.70;99.90;;;;;;5095389;28;20051;-93
2021/11/13 04:34:20;;;;;;;37.70;27.23;;;9.70;99.90;;;;;;5095283;28;20488;-92
2021/11/13 04:36:51;;;;;;;41.90;30.25;;;9.70;99.90;;;;;;5093797;28;20024;-92
2021/11/13 04:39:17;;;;;;;35.95;26.80;;;9.70;99.90;;;;;;5093961;28;20075;-92
2021/11/13 04:41:43;;;;;;;44.67;30.98;;;9.70;99.90;;;;;;5094281;28;20035;-91
2021/11/13 04:44:09;;;;;;;35.88;26.08;;;9.70;99.90;;;;;;5094295;28;20054;-91
2021/11/13 04:46:36;;;;;;;32.33;25.23;;;9.70;99.90;;;;;;5094048;28;20052;-91
2021/11/13 04:49:03;;;;;;;31.45;22.95;;;9.70;99.90;;;;;;5103491;28;20020;-91
2021/11/13 04:51:29;;;;;;;27.63;21.70;;;9.70;99.90;;;;;;5106751;28;20059;-90
2021/11/13 04:53:55;;;;;;;30.42;23.20;;;9.80;99.90;;;;;;5098357;28;20463;-93
2021/11/13 04:56:21;;;;;;;33.65;25.55;;;9.80;99.90;;;;;;5099551;28;20024;-91
2021/11/13 04:58:47;;;;;;;35.75;25.95;;;9.80;99.90;;;;;;5098328;28;20024;-93
2021/11/13 05:01:13;;;;;;;29.45;23.85;;;9.80;99.90;;;;;;5098098;28;20368;-90
2021/11/13 05:03:39;;;;;;;33.33;23.67;;;9.80;99.90;;;;;;5098111;28;20024;-92
2021/11/13 05:06:05;;;;;;;30.13;23.85;;;9.80;99.90;;;;;;5097816;28;20043;-91
2021/11/13 05:08:31;;;;;;;33.60;23.70;;;9.80;99.90;;;;;;5098224;28;20028;-91
2021/11/13 05:10:57;;;;;;;32.83;24.38;;;9.80;99.90;;;;;;5097660;28;20035;-91
2021/11/13 05:13:23;;;;;;;29.88;21.98;;;9.80;99.90;;;;;;5097635;28;20468;-90
2021/11/13 05:15:53;;;;;;;28.30;20.98;;;9.90;99.90;;;;;;5097985;28;20031;-90
2021/11/13 05:18:21;;;;;;;25.08;18.98;;;9.80;99.90;;;;;;5102670;28;20127;-91
2021/11/13 05:20:47;;;;;;;28.70;20.58;;;9.80;99.90;;;;;;5099296;28;20032;-91
2021/11/13 05:23:13;;;;;;;23.88;17.40;;;9.90;99.90;;;;;;5097232;28;20119;-90
2021/11/13 05:25:39;;;;;;;25.15;18.55;;;9.80;99.90;;;;;;5114473;28;20055;-91
2021/11/13 05:28:07;;;;;;;23.67;18.20;;;9.90;99.90;;;;;;5097398;28;20094;-93
2021/11/13 05:30:33;;;;;;;24.88;19.92;;;9.90;99.90;;;;;;5097555;28;20448;-91
2021/11/13 05:32:59;;;;;;;24.50;18.98;;;9.90;99.90;;;;;;5097213;28;20028;-90
2021/11/13 05:35:25;;;;;;;26.70;19.88;;;9.80;99.90;;;;;;5097174;28;20482;-92
2021/11/13 05:37:53;;;;;;;24.85;19.23;;;9.80;99.90;;;;;;5098077;28;20028;-91
2021/11/13 05:40:19;;;;;;;25.55;19.70;;;9.90;99.90;;;;;;5097962;28;20095;-92
2021/11/13 05:42:47;;;;;;;23.48;19.33;;;9.90;99.90;;;;;;5097257;28;20032;-91
2021/11/13 05:45:14;;;;;;;26.30;19.80;;;9.90;99.90;;;;;;5098556;28;20078;-91
2021/11/13 05:47:41;;;;;;;27.98;20.70;;;9.90;99.90;;;;;;5096577;28;20055;-91
2021/11/13 05:50:10;;;;;;;24.25;19.15;;;9.90;99.90;;;;;;5097057;28;20024;-90
2021/11/13 05:52:37;;;;;;;22.70;18.65;;;9.90;99.90;;;;;;5096539;28;20024;-91
2021/11/13 05:55:04;;;;;;;22.98;17.77;;;9.90;99.90;;;;;;5096924;28;20027;-90
2021/11/13 05:57:30;;;;;;;22.38;17.95;;;9.80;99.90;;;;;;5096059;28;20078;-91
2021/11/13 05:59:55;;;;;;;25.02;18.35;;;9.90;99.90;;;;;;5096254;28;20020;-92
2021/11/13 06:02:22;;;;;;;20.30;15.82;;;9.90;99.90;;;;;;5096039;28;20383;-91
2021/11/13 06:04:48;;;;;;;24.85;19.10;;;9.90;99.90;;;;;;5096780;28;20055;-92
2021/11/13 06:07:14;;;;;;;19.23;15.63;;;9.90;99.90;;;;;;5096465;28;20096;-91
2021/11/13 06:09:40;;;;;;;20.23;15.88;;;9.90;99.90;;;;;;5096463;28;20063;-92
2021/11/13 06:12:06;;;;;;;18.20;15.75;;;9.90;99.90;;;;;;5096376;28;20024;-91
2021/11/13 06:14:35;;;;;;;20.65;16.35;;;9.90;99.90;;;;;;5096779;28;20020;-92
2021/11/13 06:17:01;;;;;;;19.27;16.15;;;9.90;99.90;;;;;;5096479;28;20531;-91
2021/11/13 06:19:26;;;;;;;20.08;16.63;;;9.90;99.90;;;;;;5094862;28;20115;-90
2021/11/13 06:21:53;;;;;;;21.20;17.33;;;9.90;99.90;;;;;;5095127;28;20028;-90
2021/11/13 06:24:19;;;;;;;22.33;18.13;;;9.90;99.90;;;;;;5095308;28;20028;-91
2021/11/13 06:26:45;;;;;;;22.73;16.70;;;9.90;99.90;;;;;;5095598;28;20050;-91
2021/11/13 06:29:11;;;;;;;21.70;18.13;;;9.90;99.90;;;;;;5095162;28;20028;-91
2021/11/13 06:31:38;;;;;;;22.38;17.42;;;9.90;99.90;;;;;;5096661;28;20028;-92
2021/11/13 06:34:04;;;;;;;22.73;17.52;;;9.90;99.90;;;;;;5097253;28;20024;-91
2021/11/13 06:36:30;;;;;;;22.27;17.63;;;9.90;99.90;;;;;;5100001;28;20539;-92
2021/11/13 06:38:56;;;;;;;21.38;17.10;;;9.90;99.90;;;;;;5101250;28;20107;-90
2021/11/13 06:41:26;;;;;;;19.67;15.38;;;9.90;99.90;;;;;;5105267;28;20107;-92
2021/11/13 06:43:55;;;;;;;17.83;15.00;;;9.90;99.90;;;;;;5099285;28;20059;-92
2021/11/13 06:46:21;;;;;;;20.17;16.42;;;9.90;99.90;;;;;;5096831;28;20047;-92
2021/11/13 06:48:48;;;;;;;26.27;18.65;;;9.90;99.90;;;;;;5097649;28;20545;-93
2021/11/13 06:51:14;;;;;;;21.80;17.38;;;9.90;99.90;;;;;;5098652;28;20031;-92
2021/11/13 06:53:40;;;;;;;22.85;18.33;;;9.90;99.90;;;;;;5096845;28;20484;-92
2021/11/13 06:56:08;;;;;;;21.25;17.13;;;9.80;99.90;;;;;;5098776;28;20024;-90
2021/11/13 06:58:35;;;;;;;19.90;16.58;;;9.80;99.90;;;;;;5098644;28;20115;-91
2021/11/13 07:01:05;;;;;;;21.27;17.10;;;9.70;99.90;;;;;;5095776;28;20225;-91
2021/11/13 07:03:32;;;;;;;20.15;17.42;;;9.70;99.90;;;;;;5097076;28;20039;-91
2021/11/13 07:05:58;;;;;;;21.90;17.77;;;9.60;99.90;;;;;;5095779;28;20418;-90
2021/11/13 07:08:28;;;;;;;19.48;16.70;;;9.60;99.90;;;;;;5094856;28;20040;-92
2021/11/13 07:10:55;;;;;;;21.83;17.98;;;9.60;99.90;;;;;;5096347;28;20027;-91
2021/11/13 07:13:25;;;;;;;25.20;19.63;;;9.60;99.90;;;;;;5093958;28;20115;-93
2021/11/13 07:15:52;;;;;;;23.20;19.25;;;9.60;99.90;;;;;;5094792;28;20063;-91
2021/11/13 07:18:19;;;;;;;25.20;18.77;;;9.70;99.90;;;;;;5095003;28;20024;-92
2021/11/13 07:20:58;;;;;;;24.90;19.02;;;9.70;99.90;;;;;;5078134;28;20043;-91
2021/11/13 07:23:29;;;;;;;23.15;17.90;;;9.80;99.90;;;;;;5095780;28;20039;-90
2021/11/13 07:25:56;;;;;;;22.27;17.88;;;9.80;99.90;;;;;;5095251;28;20497;-91
2021/11/13 07:28:36;;;;;;;19.48;15.73;;;9.80;99.90;;;;;;5111891;28;20484;-92
2021/11/13 07:31:02;;;;;;;21.38;17.00;;;9.80;99.90;;;;;;5079826;28;20059;-91
2021/11/13 07:33:32;;;;;;;20.25;16.85;;;9.90;99.90;;;;;;5094110;28;20024;-92
2021/11/13 07:36:05;;;;;;;23.58;18.83;;;9.90;99.90;;;;;;5095031;28;20054;-93
2021/11/13 07:38:31;;;;;;;20.52;16.98;;;9.90;99.90;;;;;;5092054;28;20020;-90
2021/11/13 07:40:58;;;;;;;21.65;17.02;;;10.00;99.90;;;;;;5094146;28;20472;-91
2021/11/13 07:43:31;;;;;;;20.20;15.93;;;10.00;99.90;;;;;;5095261;28;20434;-92
2021/11/13 07:45:58;;;;;;;21.92;16.50;;;10.00;99.90;;;;;;5092568;28;20139;-91
2021/11/13 07:48:24;;;;;;;20.98;16.48;;;10.10;99.90;;;;;;5094087;28;20016;-92
2021/11/13 07:50:51;;;;;;;20.85;16.98;;;10.10;99.90;;;;;;5094173;28;20027;-91
2021/11/13 07:53:17;;;;;;;21.35;17.20;;;10.20;99.90;;;;;;5112471;28;20020;-90
2021/11/13 07:55:43;;;;;;;21.27;16.95;;;10.20;99.90;;;;;;5113382;27;20107;-91
2021/11/13 07:58:13;;;;;;;20.05;16.27;;;10.20;99.90;;;;;;5122822;27;20027;-90
2021/11/13 08:00:40;;;;;;;20.42;15.85;;;10.20;99.90;;;;;;5102245;28;20024;-92
2021/11/13 08:03:09;;;;;;;20.60;15.43;;;10.30;99.90;;;;;;5116501;28;20135;-92
2021/11/13 08:05:36;;;;;;;20.20;15.35;;;10.30;99.90;;;;;;5115144;28;20059;-92
2021/11/13 08:08:03;;;;;;;21.95;15.88;;;10.30;99.90;;;;;;5111695;28;20071;-92
2021/11/13 08:10:36;;;;;;;19.38;15.27;;;10.30;99.90;;;;;;5127559;27;20035;-93
2021/11/13 08:13:10;;;;;;;20.30;16.30;;;10.30;99.90;;;;;;5134640;27;20347;-92
2021/11/13 08:15:45;;;;;;;20.67;16.08;;;10.30;99.90;;;;;;5117520;27;20031;-92
2021/11/13 08:18:17;;;;;;;22.17;16.75;;;10.40;99.90;;;;;;5135034;27;20026;-91
2021/11/13 08:20:46;;;;;;;22.50;16.80;;;10.40;99.90;;;;;;5134927;27;20026;-92
2021/11/13 08:23:16;;;;;;;23.20;18.27;;;10.40;99.90;;;;;;5135566;27;20099;-93
2021/11/13 08:26:09;;;;;;;21.52;16.77;;;10.40;99.90;;;;;;5135363;27;20076;-91
2021/11/13 08:28:38;;;;;;;21.07;16.57;;;10.50;99.90;;;;;;5133000;27;20110;-92
2021/11/13 08:31:14;;;;;;;24.27;17.73;;;10.50;99.90;;;;;;5138634;27;20091;-93
2021/11/13 08:33:49;;;;;;;23.38;19.10;;;10.50;99.90;;;;;;5151131;27;20036;-91
2021/11/13 08:36:15;;;;;;;25.15;19.77;;;10.60;99.90;;;;;;5140966;27;20038;-92
2021/11/13 08:38:47;;;;;;;21.23;17.17;;;10.60;99.90;;;;;;5141578;28;20073;-92
2021/11/13 08:41:16;;;;;;;21.40;17.17;;;10.60;99.90;;;;;;5132059;28;20069;-92
2021/11/13 08:43:49;;;;;;;24.77;18.98;;;10.70;99.90;;;;;;5134730;28;20027;-92
2021/11/13 08:46:39;;;;;;;21.35;17.48;;;10.70;99.90;;;;;;5131375;28;20036;-91
2021/11/13 08:49:10;;;;;;;27.77;21.10;;;10.70;99.90;;;;;;5142563;28;20522;-91
2021/11/13 08:51:43;;;;;;;27.02;21.15;;;10.70;99.90;;;;;;5154869;28;20033;-91
2021/11/13 08:54:21;;;;;;;24.98;20.38;;;10.70;99.90;;;;;;5138793;28;20095;-92
2021/11/13 08:56:52;;;;;;;19.85;16.15;;;10.80;99.90;;;;;;5157613;27;20016;-92
2021/11/13 08:59:31;;;;;;;24.52;19.70;;;10.80;99.90;;;;;;5158940;27;20012;-92
2021/11/13 09:02:09;;;;;;;24.63;19.60;;;10.90;99.90;;;;;;5157727;28;20099;-93
2021/11/13 09:04:55;;;;;;;24.50;18.92;;;10.90;99.90;;;;;;5142212;28;20024;-93
2021/11/13 09:07:43;;;;;;;25.42;19.13;;;11.00;99.90;;;;;;5136956;28;20027;-93
2021/11/13 09:10:26;;;;;;;26.13;19.40;;;11.00;99.90;;;;;;5135199;28;20027;-93
2021/11/13 09:12:53;;;;;;;24.90;19.55;;;11.00;99.90;;;;;;5135680;28;20023;-93
2021/11/13 09:15:29;;;;;;;23.65;17.83;;;11.00;99.90;;;;;;5135844;28;20034;-94
2021/11/13 09:18:15;;;;;;;20.13;15.68;;;11.10;99.90;;;;;;5136619;28;20124;-93
2021/11/13 09:20:48;;;;;;;21.58;17.15;;;11.10;99.90;;;;;;5137624;28;20019;-93
2021/11/13 09:23:21;;;;;;;24.07;19.10;;;11.10;99.90;;;;;;5138634;28;20086;-93
2021/11/13 09:25:53;;;;;;;;;;;11.10;99.90;;;;;;5122919;28;20043;-93
2021/11/13 09:28:23;;;;;;;22.42;16.23;;;11.10;99.90;;;;;;5141859;28;19903;-93
2021/11/13 09:30:50;;;;;;;20.25;15.80;;;11.10;99.90;;;;;;5123020;28;20039;-93
2021/11/13 09:33:17;;;;;;;23.33;17.05;;;11.20;99.90;;;;;;5123518;28;20023;-94
2021/11/13 09:35:49;;;;;;;23.30;17.98;;;11.20;99.90;;;;;;5141845;27;20114;-94
2021/11/13 09:38:25;;;;;;;23.17;17.17;;;11.20;99.90;;;;;;5144175;27;20022;-93
2021/11/13 09:40:58;;;;;;;22.63;17.48;;;11.20;99.90;;;;;;5143666;27;20031;-92
2021/11/13 09:43:39;;;;;;;22.00;17.45;;;11.20;99.90;;;;;;5142196;27;20037;-93
2021/11/13 09:46:09;;;;;;;20.75;15.40;;;11.20;99.90;;;;;;5141973;27;20026;-93
2021/11/13 09:48:39;;;;;;;19.52;15.57;;;11.20;99.90;;;;;;5139602;27;20042;-93
2021/11/13 09:51:11;;;;;;;23.23;16.83;;;11.30;99.90;;;;;;5141165;27;20023;-93
2021/11/13 09:53:39;;;;;;;23.58;17.15;;;11.30;99.90;;;;;;5142260;27;20048;-94
2021/11/13 09:56:13;;;;;;;19.40;14.45;;;11.30;99.90;;;;;;5143845;27;20023;-94
2021/11/13 09:58:45;;;;;;;20.77;16.73;;;11.30;99.90;;;;;;5143753;27;20034;-94
2021/11/13 10:01:16;;;;;;;22.08;16.67;;;11.30;99.90;;;;;;5146897;27;20061;-93
2021/11/13 10:03:47;;;;;;;23.50;16.60;;;11.30;99.90;;;;;;5148125;27;20056;-93
2021/11/13 10:06:20;;;;;;;19.90;14.82;;;11.30;99.90;;;;;;5147082;27;20011;-93
2021/11/13 10:08:53;;;;;;;21.80;17.10;;;11.30;99.90;;;;;;5140728;27;20390;-94
2021/11/13 10:11:25;;;;;;;22.15;15.82;;;11.30;99.90;;;;;;5146771;27;20074;-91
2021/11/13 10:13:59;;;;;;;19.30;14.38;;;11.40;99.90;;;;;;5145612;27;20088;-93
2021/11/13 10:16:42;;;;;;;20.65;15.25;;;11.40;99.90;;;;;;5147219;27;20106;-92
2021/11/13 10:19:16;;;;;;;20.85;14.98;;;11.40;99.90;;;;;;5149235;27;20023;-93
2021/11/13 10:21:51;;;;;;;18.02;13.05;;;11.40;99.90;;;;;;5151271;27;20019;-93
2021/11/13 10:24:23;;;;;;;16.45;12.82;;;11.40;99.90;;;;;;5140111;27;20072;-93
2021/11/13 10:26:57;;;;;;;20.45;12.98;;;11.50;99.90;;;;;;5139290;27;20087;-93
2021/11/13 10:29:30;;;;;;;18.65;13.98;;;11.50;99.90;;;;;;5139912;27;20030;-93
2021/11/13 10:32:03;;;;;;;17.63;13.82;;;11.50;99.90;;;;;;5140654;27;20034;-93
2021/11/13 10:34:45;;;;;;;16.90;13.32;;;11.50;99.90;;;;;;5140121;27;20031;-92
2021/11/13 10:37:18;;;;;;;17.00;13.38;;;11.50;99.90;;;;;;5138768;27;20023;-92
2021/11/13 10:39:49;;;;;;;20.45;14.18;;;11.50;99.90;;;;;;5139616;27;20039;-93
2021/11/13 10:42:30;;;;;;;21.08;14.52;;;11.60;99.90;;;;;;5140748;27;20027;-92
2021/11/13 10:45:01;;;;;;;20.52;14.57;;;11.60;99.90;;;;;;5138952;27;20038;-94
2021/11/13 10:47:33;;;;;;;17.73;12.32;;;11.60;99.90;;;;;;5136494;27;20095;-93
2021/11/13 10:50:25;;;;;;;16.52;12.38;;;11.70;99.90;;;;;;5138157;27;20027;-92
2021/11/13 10:53:08;;;;;;;16.92;11.82;;;11.80;99.90;;;;;;5137417;27;20477;-94
2021/11/13 10:56:07;;;;;;;16.25;11.98;;;11.80;99.90;;;;;;5138935;27;20031;-93
2021/11/13 10:58:54;;;;;;;22.75;14.45;;;11.90;99.90;;;;;;5138531;27;20034;-93
2021/11/13 11:01:29;;;;;;;18.58;13.70;;;11.90;99.90;;;;;;5137400;27;20042;-94
2021/11/13 11:04:11;;;;;;;21.00;14.60;;;11.90;99.90;;;;;;5137113;27;20111;-93
2021/11/13 11:06:38;;;;;;;17.67;13.32;;;12.00;99.90;;;;;;5137167;27;20023;-93
2021/11/13 11:09:24;;;;;;;18.25;13.68;;;12.00;99.90;;;;;;5136583;27;20030;-93
2021/11/13 11:11:53;;;;;;;20.13;14.15;;;12.00;99.90;;;;;;5136537;27;20031;-94
2021/11/13 11:14:26;;;;;;;20.02;13.77;;;12.00;99.90;;;;;;5136310;27;20059;-94
2021/11/13 11:17:01;;;;;;;18.42;13.88;;;12.00;99.90;;;;;;5136911;27;20034;-90
2021/11/13 11:19:38;;;;;;;17.20;13.23;;;12.00;99.90;;;;;;5136998;27;20435;-92
2021/11/13 11:22:14;;;;;;;15.85;13.20;;;12.00;99.90;;;;;;5137595;27;20476;-93
2021/11/13 11:24:54;;;;;;;17.25;12.32;;;12.00;99.90;;;;;;5136963;27;20058;-93
2021/11/13 11:27:41;;;;;;;15.70;12.13;;;12.10;99.90;;;;;;5136500;27;20054;-93
2021/11/13 11:30:19;;;;;;;15.85;12.13;;;12.10;99.90;;;;;;5134526;27;20023;-91
2021/11/13 11:32:54;;;;;;;15.05;12.13;;;12.10;99.90;;;;;;5136002;27;20027;-92
2021/11/13 11:35:25;;;;;;;17.13;12.20;;;12.20;99.90;;;;;;5137179;27;20022;-93
2021/11/13 11:38:01;;;;;;;14.90;10.77;;;12.20;99.90;;;;;;5135779;27;20031;-92
2021/11/13 11:40:37;;;;;;;15.88;11.13;;;12.30;99.90;;;;;;5135379;27;20023;-92
2021/11/13 11:43:05;;;;;;;12.98;10.15;;;12.30;99.90;;;;;;5135960;27;20037;-92
2021/11/13 11:45:38;;;;;;;13.05;9.82;;;12.40;99.90;;;;;;5136117;27;20118;-92
2021/11/13 11:48:17;;;;;;;12.05;9.65;;;12.40;99.90;;;;;;5134806;27;20054;-92
2021/11/13 11:50:48;;;;;;;12.60;9.48;;;12.40;99.90;;;;;;5134980;27;20075;-93
2021/11/13 11:53:14;;;;;;;15.27;10.60;;;12.40;99.90;;;;;;5136270;27;20066;-92
2021/11/13 11:55:51;;;;;;;14.02;9.48;;;12.40;99.90;;;;;;5136714;27;20094;-92
2021/11/13 11:58:22;;;;;;;11.38;8.93;;;12.50;99.90;;;;;;5139455;27;20023;-93
2021/11/13 12:00:56;;;;;;;12.52;9.90;;;12.40;99.90;;;;;;5136111;27;20053;-93
2021/11/13 12:03:35;;;;;;;12.20;9.63;;;12.50;99.90;;;;;;5135505;27;20056;-92
2021/11/13 12:06:04;;;;;;;13.55;9.90;;;12.70;99.90;;;;;;5138832;27;20023;-93
2021/11/13 12:08:33;;;;;;;12.02;8.40;;;12.90;99.90;;;;;;5151409;27;20362;-91
2021/11/13 12:11:21;;;;;;;13.93;10.05;;;13.20;99.90;;;;;;5139067;27;20023;-92
2021/11/13 12:13:50;;;;;;;12.65;9.32;;;13.40;99.90;;;;;;5135391;27;20027;-91
2021/11/13 12:16:24;;;;;;;12.02;8.75;;;13.60;99.90;;;;;;5135490;27;20027;-89
2021/11/13 12:18:50;;;;;;;11.27;8.50;;;13.80;99.90;;;;;;5135282;27;20022;-92
2021/11/13 12:21:17;;;;;;;12.25;8.35;;;13.90;99.90;;;;;;5134943;27;20019;-92
2021/11/13 12:23:46;;;;;;;10.60;8.27;;;14.00;99.90;;;;;;5135298;27;20039;-90
2021/11/13 12:26:33;;;;;;;11.38;8.75;;;14.00;99.90;;;;;;5134886;27;20015;-90
2021/11/13 12:29:13;;;;;;;11.80;8.25;;;14.00;99.90;;;;;;5135020;27;20567;-90
2021/11/13 12:31:42;;;;;;;10.48;7.68;;;14.00;99.90;;;;;;5117731;27;20031;-90
2021/11/13 12:34:14;;;;;;;9.30;7.18;;;14.00;99.90;;;;;;5135146;27;20031;-90
2021/11/13 12:37:02;;;;;;;8.73;7.20;;;13.90;99.90;;;;;;5134984;27;20488;-89
2021/11/13 12:39:32;;;;;;;9.35;7.72;;;13.80;99.90;;;;;;5134250;27;20031;-91
2021/11/13 12:42:03;;;;;;;10.15;6.93;;;13.90;99.90;;;;;;5135009;28;20389;-91
2021/11/13 12:44:35;;;;;;;7.60;5.85;;;14.00;99.90;;;;;;5135027;28;20475;-90
2021/11/13 12:47:08;;;;;;;9.07;6.70;;;14.10;99.90;;;;;;5135670;27;20051;-90